Sunday, November 17, 2019, 3:41 PM EST
Back to Local

KBID, Block Island, Block Island State Airport

Location: Block Island, RI, United States Lat: 41.167
Local Time: 3:41 PM EST (20:41 GMT) Lon: -71.567
Time Zone: US/Eastern Elev: 108 ft

Show me the last for .
Show Decoded

2019-11-17 14:56 METAR KBID 171956Z AUTO 06018G25KT 10SM BKN029 06/00 A3021 RMK AO2 SLP232
                 T00610000 =
2019-11-17 13:56 METAR KBID 171856Z AUTO 07016G21KT 10SM OVC029 07/00 A3024 RMK AO2 PK WND
                 05028/1808 SLP241 T00670000 =
2019-11-17 13:54 METAR KBID 171854Z AUTO 07015G26KT 10SM OVC029 07/00 A3024 RMK AO2 PK WND
                 05028/1808 =
2019-11-17 13:14 METAR KBID 171814Z AUTO 06015G28KT 10SM BKN031 OVC038 07/00 A3025 RMK AO2 PK WND
                 05028/1808 =
2019-11-17 12:56 METAR KBID 171756Z AUTO 06016G22KT 10SM BKN029 OVC035 06/00 A3026 RMK AO2 SLP248
                 60000 T00610000 10067 20028 58028 =
2019-11-17 12:15 METAR KBID 171715Z AUTO 07016G24KT 10SM FEW025 OVC032 06/M01 A3029 RMK AO2 =
2019-11-17 11:56 METAR KBID 171656Z AUTO 07018G23KT 10SM BKN025 OVC032 06/01 A3030 RMK AO2 PK WND
                 07026/1646 SLP261 T00610006 =
2019-11-17 10:56 METAR KBID 171556Z AUTO 07016G22KT 10SM BKN027 OVC034 06/00 A3032 RMK AO2 PK WND
                 07027/1528 SLP270 T00560000 =
2019-11-17 09:56 METAR KBID 171456Z AUTO 06018G25KT 10SM SCT021 OVC026 05/01 A3034 RMK AO2
                 RAB02E23 SLP277 P0000 60000 T00500006 58007 =
2019-11-17 08:56 METAR KBID 171356Z AUTO 04013G22KT 10SM OVC027 04/M01 A3037 RMK AO2 SLP286
                 T00391006 =
2019-11-17 07:56 METAR KBID 171256Z AUTO 05015G24KT 10SM OVC029 03/M01 A3036 RMK AO2 PK WND
                 04026/1230 SLP283 T00331011 =
2019-11-17 07:51 METAR KBID 171251Z AUTO 04013G24KT 10SM OVC029 03/M02 A3036 RMK AO2 PK WND
                 04026/1230 =
2019-11-17 06:56 METAR KBID 171156Z AUTO 04013G21KT 10SM OVC031 03/M02 A3037 RMK AO2 SLP284 7////
                 T00281022 10028 20006 55005 =
2019-11-17 05:56 METAR KBID 171056Z AUTO 05015G23KT 10SM OVC034 02/M02 A3036 RMK AO2 SLP282
                 T00221017 FZRANO =
2019-11-17 04:56 METAR KBID 170956Z AUTO 03015G23KT 10SM OVC038 02/M02 A3036 RMK AO2 SLP283
                 T00171017 FZRANO =
2019-11-17 03:56 METAR KBID 170856Z AUTO 03012G21KT 10SM BKN038 01/M03 A3038 RMK AO2 SLP290
                 T00061028 55009 FZRANO =
2019-11-17 02:56 METAR KBID 170756Z AUTO 04014G22KT 10SM OVC038 02/M03 A3037 RMK AO2 SLP287
                 T00171033 FZRANO =
2019-11-17 01:56 METAR KBID 170656Z AUTO 04013G21KT 10SM OVC038 01/M04 A3040 RMK AO2 SLP295
                 T00111039 FZRANO =
2019-11-17 00:56 METAR KBID 170556Z AUTO 04013G19KT 10SM BKN038 01/M05 A3041 RMK AO2 SLP299
                 T00111050 10011 21006 58017 FZRANO =
2019-11-16 23:56 METAR KBID 170456Z AUTO 05011G21KT 10SM CLR 01/M06 A3044 RMK AO2 SLP308
                 T00061056 FZRANO =
2019-11-16 22:56 METAR KBID 170356Z AUTO 02012G19KT 10SM CLR M01/M08 A3044 RMK AO2 SLP311
                 T10061083 400561011 FZRANO =
2019-11-16 21:56 METAR KBID 170256Z AUTO 01013G18KT 10SM CLR M01/M09 A3046 RMK AO2 SLP315
                 T10061094 56004 FZRANO =
2019-11-16 20:56 METAR KBID 170156Z AUTO 02014G19KT 10SM CLR 00/M11 A3046 RMK AO2 SLP316
                 T00001111 FZRANO =
2019-11-16 19:56 METAR KBID 170056Z AUTO 03013G20KT 10SM CLR 01/M13 A3046 RMK AO2 SLP318
                 T00061133 FZRANO =
2019-11-16 18:56 METAR KBID 162356Z AUTO 04011G16KT 10SM CLR 01/M14 A3047 RMK AO2 SLP319
                 T00111144 10028 20011 53011 FZRANO =
2019-11-16 17:56 METAR KBID 162256Z AUTO 04010G14KT 10SM CLR 01/M14 A3046 RMK AO2 SLP316
                 T00111144 FZRANO =
2019-11-16 16:56 METAR KBID 162156Z AUTO 03012G18KT 10SM CLR 01/M13 A3044 RMK AO2 SLP311
                 T00111128 FZRANO =
2019-11-16 15:56 METAR KBID 162056Z AUTO 03013G16KT 10SM CLR 02/M13 A3044 RMK AO2 SLP308
                 T00171128 53004 FZRANO =

Support USWX by starting your Amazon purchase here.